METAR Data
IDs: Format: Raw Decoded Include TAF

Data at: 1155 UTC 23 Jun 2021

METAR for:K20V (Kremmling/McElroy Fl, CO, US)
Text:K20V 231135Z AUTO 00000KT 10SM CLR 07/01 A3021 RMK AO2
Temperature: 7.0°C ( 45°F)
Dewpoint: 1.0°C ( 34°F) [RH = 66%]
Pressure (altimeter):30.21 inches Hg (1023.1 mb)
Winds:calm
Visibility:10 or more sm (16+ km)
Ceiling:at least 12,000 feet AGL
Clouds:sky clear below 12,000 feet AGL
QC Flag:automated observation with no human augmentation